sensor_id;sensor_type;location;lat;lon;timestamp;pressure;altitude;pressure_sealevel;temperature;humidity
70323;BME280;57735;56.264;43.898;2024-02-16T00:00:48;103293.19;;;-14.04;53.88
70323;BME280;57735;56.264;43.898;2024-02-16T00:03:19;103292.22;;;-14.06;53.38
70323;BME280;57735;56.264;43.898;2024-02-16T00:05:50;103286.97;;;-14.09;53.29
70323;BME280;57735;56.264;43.898;2024-02-16T00:08:21;103284.19;;;-14.14;53.38
70323;BME280;57735;56.264;43.898;2024-02-16T00:10:52;103289.97;;;-14.18;53.61
70323;BME280;57735;56.264;43.898;2024-02-16T00:13:23;103278.84;;;-14.18;53.79
70323;BME280;57735;56.264;43.898;2024-02-16T00:15:54;103284.91;;;-14.16;53.59
70323;BME280;57735;56.264;43.898;2024-02-16T00:18:24;103282.28;;;-14.18;53.35
70323;BME280;57735;56.264;43.898;2024-02-16T00:20:58;103291.81;;;-14.15;53.57
70323;BME280;57735;56.264;43.898;2024-02-16T00:23:28;103288.44;;;-14.14;53.01
70323;BME280;57735;56.264;43.898;2024-02-16T00:26:01;103295.31;;;-14.13;53.51
70323;BME280;57735;56.264;43.898;2024-02-16T00:28:32;103295.31;;;-14.13;53.88
70323;BME280;57735;56.264;43.898;2024-02-16T00:31:03;103295.41;;;-14.12;53.60
70323;BME280;57735;56.264;43.898;2024-02-16T00:33:35;103297.88;;;-14.13;53.70
70323;BME280;57735;56.264;43.898;2024-02-16T00:36:06;103288.38;;;-14.16;53.15
70323;BME280;57735;56.264;43.898;2024-02-16T00:38:37;103287.41;;;-14.18;53.73
70323;BME280;57735;56.264;43.898;2024-02-16T00:41:08;103277.88;;;-14.20;53.48
70323;BME280;57735;56.264;43.898;2024-02-16T00:43:47;103287.50;;;-14.16;53.84
70323;BME280;57735;56.264;43.898;2024-02-16T00:46:18;103287.78;;;-14.10;53.73
70323;BME280;57735;56.264;43.898;2024-02-16T00:48:54;103289.66;;;-14.06;53.75
70323;BME280;57735;56.264;43.898;2024-02-16T00:51:27;103280.59;;;-13.99;53.60
70323;BME280;57735;56.264;43.898;2024-02-16T00:53:58;103279.31;;;-13.90;53.76
70323;BME280;57735;56.264;43.898;2024-02-16T00:56:29;103272.56;;;-13.88;53.86
70323;BME280;57735;56.264;43.898;2024-02-16T00:59:00;103266.50;;;-13.90;54.29
70323;BME280;57735;56.264;43.898;2024-02-16T01:01:31;103272.47;;;-13.91;54.35
70323;BME280;57735;56.264;43.898;2024-02-16T01:04:02;103276.41;;;-13.97;55.21
70323;BME280;57735;56.264;43.898;2024-02-16T01:06:33;103279.78;;;-13.98;55.11
70323;BME280;57735;56.264;43.898;2024-02-16T01:09:03;103278.91;;;-13.99;55.12
70323;BME280;57735;56.264;43.898;2024-02-16T01:11:34;103263.53;;;-13.99;55.46
70323;BME280;57735;56.264;43.898;2024-02-16T01:14:08;103268.72;;;-13.97;55.71
70323;BME280;57735;56.264;43.898;2024-02-16T01:16:39;103271.16;;;-14.00;55.82
70323;BME280;57735;56.264;43.898;2024-02-16T01:19:10;103260.59;;;-14.06;55.79
70323;BME280;57735;56.264;43.898;2024-02-16T01:21:40;103247.94;;;-14.03;56.23
70323;BME280;57735;56.264;43.898;2024-02-16T01:24:11;103240.31;;;-14.02;56.01
70323;BME280;57735;56.264;43.898;2024-02-16T01:26:43;103248.00;;;-14.02;56.33
70323;BME280;57735;56.264;43.898;2024-02-16T01:29:14;103244.50;;;-14.04;56.40
70323;BME280;57735;56.264;43.898;2024-02-16T01:31:45;103251.19;;;-14.07;56.57
70323;BME280;57735;56.264;43.898;2024-02-16T01:34:16;103235.75;;;-14.09;56.83
70323;BME280;57735;56.264;43.898;2024-02-16T01:36:46;103226.41;;;-14.07;56.86
70323;BME280;57735;56.264;43.898;2024-02-16T01:39:17;103238.22;;;-14.10;57.13
70323;BME280;57735;56.264;43.898;2024-02-16T01:41:48;103240.97;;;-14.06;57.14
70323;BME280;57735;56.264;43.898;2024-02-16T01:44:18;103242.00;;;-14.02;57.81
70323;BME280;57735;56.264;43.898;2024-02-16T01:46:49;103247.13;;;-14.02;57.91
70323;BME280;57735;56.264;43.898;2024-02-16T01:49:20;103245.28;;;-14.05;58.24
70323;BME280;57735;56.264;43.898;2024-02-16T01:51:52;103238.63;;;-14.01;58.57
70323;BME280;57735;56.264;43.898;2024-02-16T01:54:23;103226.03;;;-13.97;58.74
70323;BME280;57735;56.264;43.898;2024-02-16T01:56:54;103228.75;;;-13.94;58.91
70323;BME280;57735;56.264;43.898;2024-02-16T01:59:25;103224.56;;;-13.92;58.64
70323;BME280;57735;56.264;43.898;2024-02-16T02:01:56;103219.44;;;-13.92;58.57
70323;BME280;57735;56.264;43.898;2024-02-16T02:04:27;103214.19;;;-13.95;58.81
70323;BME280;57735;56.264;43.898;2024-02-16T02:06:58;103216.66;;;-13.96;59.01
70323;BME280;57735;56.264;43.898;2024-02-16T02:09:28;103213.88;;;-14.01;59.50
70323;BME280;57735;56.264;43.898;2024-02-16T02:11:59;103201.75;;;-14.05;59.71
70323;BME280;57735;56.264;43.898;2024-02-16T02:14:30;103204.03;;;-14.11;60.09
70323;BME280;57735;56.264;43.898;2024-02-16T02:17:00;103200.59;;;-14.12;60.80
70323;BME280;57735;56.264;43.898;2024-02-16T02:19:31;103199.88;;;-14.09;60.73
70323;BME280;57735;56.264;43.898;2024-02-16T02:22:03;103197.97;;;-14.13;61.13
70323;BME280;57735;56.264;43.898;2024-02-16T02:24:33;103205.72;;;-14.12;61.84
70323;BME280;57735;56.264;43.898;2024-02-16T02:27:04;103197.09;;;-14.14;61.46
70323;BME280;57735;56.264;43.898;2024-02-16T02:29:35;103185.09;;;-14.15;61.90
70323;BME280;57735;56.264;43.898;2024-02-16T02:32:06;103187.44;;;-14.19;62.43
70323;BME280;57735;56.264;43.898;2024-02-16T02:34:40;103195.13;;;-14.19;63.14
70323;BME280;57735;56.264;43.898;2024-02-16T02:37:10;103213.03;;;-14.19;62.93
70323;BME280;57735;56.264;43.898;2024-02-16T02:39:44;103195.13;;;-14.19;63.15
70323;BME280;57735;56.264;43.898;2024-02-16T02:42:15;103207.41;;;-14.12;62.97
70323;BME280;57735;56.264;43.898;2024-02-16T02:44:48;103191.50;;;-14.05;62.91
70323;BME280;57735;56.264;43.898;2024-02-16T02:47:20;103186.38;;;-14.05;63.05
70323;BME280;57735;56.264;43.898;2024-02-16T02:49:51;103193.97;;;-14.06;62.95
70323;BME280;57735;56.264;43.898;2024-02-16T02:52:22;103191.63;;;-14.02;63.10
70323;BME280;57735;56.264;43.898;2024-02-16T02:54:53;103191.63;;;-14.02;63.12
70323;BME280;57735;56.264;43.898;2024-02-16T02:57:23;103191.50;;;-14.05;63.14
70323;BME280;57735;56.264;43.898;2024-02-16T03:00:05;103193.88;;;-14.09;63.08
70323;BME280;57735;56.264;43.898;2024-02-16T03:02:41;103180.97;;;-14.11;63.50
70323;BME280;57735;56.264;43.898;2024-02-16T03:05:11;103177.69;;;-14.08;63.74
70323;BME280;57735;56.264;43.898;2024-02-16T03:07:42;103177.69;;;-14.08;63.79
70323;BME280;57735;56.264;43.898;2024-02-16T03:10:13;103173.38;;;-14.09;63.70
70323;BME280;57735;56.264;43.898;2024-02-16T03:12:48;103175.84;;;-14.11;64.02
70323;BME280;57735;56.264;43.898;2024-02-16T03:15:22;103167.28;;;-14.12;64.12
70323;BME280;57735;56.264;43.898;2024-02-16T03:17:53;103184.69;;;-14.04;64.59
70323;BME280;57735;56.264;43.898;2024-02-16T03:20:24;103178.88;;;-14.00;64.59
70323;BME280;57735;56.264;43.898;2024-02-16T03:22:55;103169.72;;;-13.95;64.52
70323;BME280;57735;56.264;43.898;2024-02-16T03:25:26;103173.25;;;-13.93;64.32
70323;BME280;57735;56.264;43.898;2024-02-16T03:27:57;103169.66;;;-13.97;64.17
70323;BME280;57735;56.264;43.898;2024-02-16T03:30:28;103169.53;;;-14.00;64.30
70323;BME280;57735;56.264;43.898;2024-02-16T03:33:01;103176.53;;;-13.96;64.54
70323;BME280;57735;56.264;43.898;2024-02-16T03:35:32;103174.78;;;-13.97;64.63
70323;BME280;57735;56.264;43.898;2024-02-16T03:38:03;103183.44;;;-13.95;64.66
70323;BME280;57735;56.264;43.898;2024-02-16T03:40:34;103182.69;;;-13.92;64.51
70323;BME280;57735;56.264;43.898;2024-02-16T03:43:05;103176.69;;;-13.93;64.44
70323;BME280;57735;56.264;43.898;2024-02-16T03:45:36;103175.00;;;-13.92;64.54
70323;BME280;57735;56.264;43.898;2024-02-16T03:48:06;103171.66;;;-13.90;64.61
70323;BME280;57735;56.264;43.898;2024-02-16T03:50:37;103173.56;;;-13.86;64.66
70323;BME280;57735;56.264;43.898;2024-02-16T03:53:08;103170.06;;;-13.88;64.60
70323;BME280;57735;56.264;43.898;2024-02-16T03:55:39;103174.50;;;-13.84;64.94
70323;BME280;57735;56.264;43.898;2024-02-16T03:58:09;103173.72;;;-13.83;64.72
70323;BME280;57735;56.264;43.898;2024-02-16T04:00:40;103181.47;;;-13.81;64.28
70323;BME280;57735;56.264;43.898;2024-02-16T04:03:11;103179.72;;;-13.82;64.54
70323;BME280;57735;56.264;43.898;2024-02-16T04:05:42;103176.41;;;-13.80;64.77
70323;BME280;57735;56.264;43.898;2024-02-16T04:08:12;103182.81;;;-13.70;64.75
70323;BME280;57735;56.264;43.898;2024-02-16T04:10:45;103187.13;;;-13.69;64.43
70323;BME280;57735;56.264;43.898;2024-02-16T04:13:16;103179.38;;;-13.70;64.36
70323;BME280;57735;56.264;43.898;2024-02-16T04:15:46;103187.19;;;-13.67;64.44
70323;BME280;57735;56.264;43.898;2024-02-16T04:18:17;103189.69;;;-13.69;64.33
70323;BME280;57735;56.264;43.898;2024-02-16T04:20:49;103184.41;;;-13.72;64.26
70323;BME280;57735;56.264;43.898;2024-02-16T04:23:22;103183.22;;;-13.80;64.35
70323;BME280;57735;56.264;43.898;2024-02-16T04:25:57;103178.16;;;-13.79;64.78
70323;BME280;57735;56.264;43.898;2024-02-16T04:28:28;103175.47;;;-13.82;64.70
70323;BME280;57735;56.264;43.898;2024-02-16T04:30:58;103180.72;;;-13.79;64.79
70323;BME280;57735;56.264;43.898;2024-02-16T04:33:29;103175.84;;;-13.72;65.14
70323;BME280;57735;56.264;43.898;2024-02-16T04:36:00;103176.00;;;-13.69;64.80
70323;BME280;57735;56.264;43.898;2024-02-16T04:38:30;103171.59;;;-13.72;64.38
70323;BME280;57735;56.264;43.898;2024-02-16T04:41:07;103171.66;;;-13.70;64.54
70323;BME280;57735;56.264;43.898;2024-02-16T04:43:38;103167.41;;;-13.70;64.62
70323;BME280;57735;56.264;43.898;2024-02-16T04:46:16;103175.19;;;-13.68;64.91
70323;BME280;57735;56.264;43.898;2024-02-16T04:48:47;103169.25;;;-13.67;64.89
70323;BME280;57735;56.264;43.898;2024-02-16T04:51:18;103162.38;;;-13.68;64.96
70323;BME280;57735;56.264;43.898;2024-02-16T04:53:51;103176.19;;;-13.65;65.18
70323;BME280;57735;56.264;43.898;2024-02-16T04:56:22;103175.53;;;-13.61;65.46
70323;BME280;57735;56.264;43.898;2024-02-16T04:58:53;103161.91;;;-13.60;65.09
70323;BME280;57735;56.264;43.898;2024-02-16T05:01:24;103169.78;;;-13.55;65.04
70323;BME280;57735;56.264;43.898;2024-02-16T05:03:54;103173.28;;;-13.53;64.99
70323;BME280;57735;56.264;43.898;2024-02-16T05:06:25;103171.94;;;-13.45;64.89
70323;BME280;57735;56.264;43.898;2024-02-16T05:08:56;103179.56;;;-13.47;64.68
70323;BME280;57735;56.264;43.898;2024-02-16T05:11:27;103170.91;;;-13.49;64.76
70323;BME280;57735;56.264;43.898;2024-02-16T05:14:00;103181.53;;;-13.41;64.80
70323;BME280;57735;56.264;43.898;2024-02-16T05:16:31;103180.81;;;-13.37;64.91
70323;BME280;57735;56.264;43.898;2024-02-16T05:19:02;103190.94;;;-13.40;64.72
70323;BME280;57735;56.264;43.898;2024-02-16T05:21:36;103186.75;;;-13.38;64.79
70323;BME280;57735;56.264;43.898;2024-02-16T05:24:07;103189.72;;;-13.29;64.66
70323;BME280;57735;56.264;43.898;2024-02-16T05:26:37;103183.94;;;-13.23;64.52
70323;BME280;57735;56.264;43.898;2024-02-16T05:29:09;103191.66;;;-13.23;64.66
70323;BME280;57735;56.264;43.898;2024-02-16T05:31:40;103187.53;;;-13.20;64.46
70323;BME280;57735;56.264;43.898;2024-02-16T05:34:11;103187.59;;;-13.18;64.22
70323;BME280;57735;56.264;43.898;2024-02-16T05:36:41;103193.75;;;-13.15;64.35
70323;BME280;57735;56.264;43.898;2024-02-16T05:39:14;103187.91;;;-13.11;64.11
70323;BME280;57735;56.264;43.898;2024-02-16T05:41:57;103181.44;;;-13.01;64.21
70323;BME280;57735;56.264;43.898;2024-02-16T05:44:27;103182.72;;;-12.91;64.19
70323;BME280;57735;56.264;43.898;2024-02-16T05:46:58;103194.16;;;-12.83;64.06
70323;BME280;57735;56.264;43.898;2024-02-16T05:49:29;103182.38;;;-12.78;63.75
70323;BME280;57735;56.264;43.898;2024-02-16T05:52:00;103193.59;;;-12.76;63.67
70323;BME280;57735;56.264;43.898;2024-02-16T05:54:49;103190.31;;;-12.72;63.85
70323;BME280;57735;56.264;43.898;2024-02-16T05:57:20;103185.50;;;-12.85;63.89
70323;BME280;57735;56.264;43.898;2024-02-16T05:59:50;103193.94;;;-12.88;64.27
70323;BME280;57735;56.264;43.898;2024-02-16T06:02:23;103193.06;;;-12.88;64.62
70323;BME280;57735;56.264;43.898;2024-02-16T06:04:58;103188.19;;;-12.82;65.05
70323;BME280;57735;56.264;43.898;2024-02-16T06:07:29;103195.09;;;-12.81;64.65
70323;BME280;57735;56.264;43.898;2024-02-16T06:10:00;103200.56;;;-12.74;64.89
70323;BME280;57735;56.264;43.898;2024-02-16T06:12:36;103204.34;;;-12.64;64.60
70323;BME280;57735;56.264;43.898;2024-02-16T06:15:07;103193.53;;;-12.57;64.37
70323;BME280;57735;56.264;43.898;2024-02-16T06:17:39;103187.91;;;-12.47;64.10
70323;BME280;57735;56.264;43.898;2024-02-16T06:20:11;103196.78;;;-12.39;63.55
70323;BME280;57735;56.264;43.898;2024-02-16T06:22:42;103200.88;;;-12.44;63.28
70323;BME280;57735;56.264;43.898;2024-02-16T06:25:13;103197.38;;;-12.46;63.63
70323;BME280;57735;56.264;43.898;2024-02-16T06:27:44;103196.69;;;-12.42;63.45
70323;BME280;57735;56.264;43.898;2024-02-16T06:30:15;103186.06;;;-12.28;63.70
70323;BME280;57735;56.264;43.898;2024-02-16T06:32:46;103180.50;;;-12.17;63.27
70323;BME280;57735;56.264;43.898;2024-02-16T06:35:18;103182.38;;;-12.13;63.11
70323;BME280;57735;56.264;43.898;2024-02-16T06:37:48;103184.31;;;-12.07;63.06
70323;BME280;57735;56.264;43.898;2024-02-16T06:40:36;103187.06;;;-12.01;62.94
70323;BME280;57735;56.264;43.898;2024-02-16T06:43:07;103188.94;;;-11.97;63.19
70323;BME280;57735;56.264;43.898;2024-02-16T06:45:39;103184.94;;;-11.90;62.98
70323;BME280;57735;56.264;43.898;2024-02-16T06:48:10;103187.81;;;-11.81;63.34
70323;BME280;57735;56.264;43.898;2024-02-16T06:50:40;103183.75;;;-11.75;63.08
70323;BME280;57735;56.264;43.898;2024-02-16T06:53:17;103190.03;;;-11.67;62.91
70323;BME280;57735;56.264;43.898;2024-02-16T06:55:48;103184.81;;;-11.68;62.73
70323;BME280;57735;56.264;43.898;2024-02-16T06:58:22;103181.72;;;-11.59;63.00
70323;BME280;57735;56.264;43.898;2024-02-16T07:00:52;103178.69;;;-11.48;62.93
70323;BME280;57735;56.264;43.898;2024-02-16T07:03:24;103168.81;;;-11.36;62.68
70323;BME280;57735;56.264;43.898;2024-02-16T07:05:56;103178.56;;;-11.27;62.68
70323;BME280;57735;56.264;43.898;2024-02-16T07:08:27;103175.41;;;-11.18;62.49
70323;BME280;57735;56.264;43.898;2024-02-16T07:11:01;103183.66;;;-11.29;61.71
70323;BME280;57735;56.264;43.898;2024-02-16T07:13:38;103177.63;;;-11.29;61.98
70323;BME280;57735;56.264;43.898;2024-02-16T07:16:09;103178.69;;;-11.24;61.49
70323;BME280;57735;56.264;43.898;2024-02-16T07:18:39;103178.88;;;-11.18;61.63
70323;BME280;57735;56.264;43.898;2024-02-16T07:21:10;103175.91;;;-11.03;61.41
70323;BME280;57735;56.264;43.898;2024-02-16T07:23:41;103181.94;;;-11.03;61.19
70323;BME280;57735;56.264;43.898;2024-02-16T07:26:12;103180.84;;;-11.11;61.13
70323;BME280;57735;56.264;43.898;2024-02-16T07:28:43;103191.53;;;-10.99;61.29
70323;BME280;57735;56.264;43.898;2024-02-16T07:31:15;103192.03;;;-10.83;61.32
70323;BME280;57735;56.264;43.898;2024-02-16T07:33:46;103187.66;;;-10.86;60.39
70323;BME280;57735;56.264;43.898;2024-02-16T07:36:17;103187.00;;;-10.80;60.68
70323;BME280;57735;56.264;43.898;2024-02-16T07:38:49;103193.22;;;-10.74;60.74
70323;BME280;57735;56.264;43.898;2024-02-16T07:41:20;103186.69;;;-10.63;60.50
70323;BME280;57735;56.264;43.898;2024-02-16T07:43:50;103191.41;;;-10.49;60.25
70323;BME280;57735;56.264;43.898;2024-02-16T07:46:21;103186.59;;;-10.39;60.00
70323;BME280;57735;56.264;43.898;2024-02-16T07:48:53;103199.56;;;-10.36;59.28
70323;BME280;57735;56.264;43.898;2024-02-16T07:51:25;103193.47;;;-10.38;59.03
70323;BME280;57735;56.264;43.898;2024-02-16T07:53:56;103183.41;;;-10.30;59.03
70323;BME280;57735;56.264;43.898;2024-02-16T07:56:27;103186.25;;;-10.23;59.12
70323;BME280;57735;56.264;43.898;2024-02-16T07:58:57;103188.88;;;-10.19;58.78
70323;BME280;57735;56.264;43.898;2024-02-16T08:01:31;103184.28;;;-10.30;58.49
70323;BME280;57735;56.264;43.898;2024-02-16T08:04:04;103179.91;;;-10.32;58.59
70323;BME280;57735;56.264;43.898;2024-02-16T08:06:35;103180.88;;;-10.29;59.08
70323;BME280;57735;56.264;43.898;2024-02-16T08:09:06;103175.69;;;-10.30;59.17
70323;BME280;57735;56.264;43.898;2024-02-16T08:11:37;103175.47;;;-10.36;59.42
70323;BME280;57735;56.264;43.898;2024-02-16T08:14:08;103183.16;;;-10.38;59.36
70323;BME280;57735;56.264;43.898;2024-02-16T08:16:39;103180.84;;;-10.30;59.67
70323;BME280;57735;56.264;43.898;2024-02-16T08:19:10;103176.50;;;-10.31;59.27
70323;BME280;57735;56.264;43.898;2024-02-16T08:21:40;103177.13;;;-10.38;59.38
70323;BME280;57735;56.264;43.898;2024-02-16T08:24:11;103174.72;;;-10.34;59.67
70323;BME280;57735;56.264;43.898;2024-02-16T08:26:46;103175.72;;;-10.29;59.57
70323;BME280;57735;56.264;43.898;2024-02-16T08:29:16;103168.09;;;-10.26;59.51
70323;BME280;57735;56.264;43.898;2024-02-16T08:31:50;103168.97;;;-10.25;59.50
70323;BME280;57735;56.264;43.898;2024-02-16T08:34:21;103172.59;;;-10.17;59.17
70323;BME280;57735;56.264;43.898;2024-02-16T08:36:52;103161.28;;;-10.24;59.30
70323;BME280;57735;56.264;43.898;2024-02-16T08:39:23;103162.34;;;-10.15;59.54
70323;BME280;57735;56.264;43.898;2024-02-16T08:41:57;103161.59;;;-10.11;59.34
70323;BME280;57735;56.264;43.898;2024-02-16T08:44:29;103158.50;;;-10.00;59.30
70323;BME280;57735;56.264;43.898;2024-02-16T08:46:59;103143.25;;;-9.92;59.04
70323;BME280;57735;56.264;43.898;2024-02-16T08:49:33;103152.56;;;-9.97;58.48
70323;BME280;57735;56.264;43.898;2024-02-16T08:52:06;103146.69;;;-9.92;58.45
70323;BME280;57735;56.264;43.898;2024-02-16T08:54:37;103145.59;;;-10.00;58.57
70323;BME280;57735;56.264;43.898;2024-02-16T08:57:08;103144.66;;;-10.02;58.31
70323;BME280;57735;56.264;43.898;2024-02-16T08:59:40;103141.31;;;-9.99;58.16
70323;BME280;57735;56.264;43.898;2024-02-16T09:02:11;103144.75;;;-9.99;58.13
70323;BME280;57735;56.264;43.898;2024-02-16T09:04:45;103137.91;;;-9.98;58.42
70323;BME280;57735;56.264;43.898;2024-02-16T09:07:16;103140.56;;;-9.95;58.83
70323;BME280;57735;56.264;43.898;2024-02-16T09:09:47;103138.25;;;-9.86;58.23
70323;BME280;57735;56.264;43.898;2024-02-16T09:12:18;103140.75;;;-9.89;58.80
70323;BME280;57735;56.264;43.898;2024-02-16T09:14:51;103147.25;;;-10.02;58.58
70323;BME280;57735;56.264;43.898;2024-02-16T09:17:22;103145.06;;;-9.88;58.57
70323;BME280;57735;56.264;43.898;2024-02-16T09:19:53;103145.53;;;-9.71;58.58
70323;BME280;57735;56.264;43.898;2024-02-16T09:22:24;103147.25;;;-9.72;58.33
70323;BME280;57735;56.264;43.898;2024-02-16T09:24:54;103148.09;;;-9.73;58.23
70323;BME280;57735;56.264;43.898;2024-02-16T09:27:30;103144.44;;;-9.79;58.20
70323;BME280;57735;56.264;43.898;2024-02-16T09:30:01;103146.28;;;-9.75;58.55
70323;BME280;57735;56.264;43.898;2024-02-16T09:32:38;103140.16;;;-9.79;58.44
70323;BME280;57735;56.264;43.898;2024-02-16T09:35:09;103135.19;;;-9.73;59.00
70323;BME280;57735;56.264;43.898;2024-02-16T09:37:43;103133.44;;;-9.74;58.56
70323;BME280;57735;56.264;43.898;2024-02-16T09:40:14;103130.16;;;-9.67;58.76
70323;BME280;57735;56.264;43.898;2024-02-16T09:42:48;103137.81;;;-9.70;58.47
70323;BME280;57735;56.264;43.898;2024-02-16T09:45:22;103130.25;;;-9.64;58.34
70323;BME280;57735;56.264;43.898;2024-02-16T09:47:55;103127.91;;;-9.56;58.56
70323;BME280;57735;56.264;43.898;2024-02-16T09:50:27;103136.53;;;-9.54;58.93
70323;BME280;57735;56.264;43.898;2024-02-16T09:52:58;103126.28;;;-9.51;58.68
70323;BME280;57735;56.264;43.898;2024-02-16T09:55:32;103114.16;;;-9.54;57.99
70323;BME280;57735;56.264;43.898;2024-02-16T09:58:04;103108.25;;;-9.49;58.69
70323;BME280;57735;56.264;43.898;2024-02-16T10:00:35;103113.81;;;-9.34;58.96
70323;BME280;57735;56.264;43.898;2024-02-16T10:03:06;103108.03;;;-9.26;58.55
70323;BME280;57735;56.264;43.898;2024-02-16T10:05:36;103106.09;;;-9.33;57.98
70323;BME280;57735;56.264;43.898;2024-02-16T10:08:12;103105.28;;;-9.32;58.28
70323;BME280;57735;56.264;43.898;2024-02-16T10:10:46;103099.84;;;-9.42;58.34
70323;BME280;57735;56.264;43.898;2024-02-16T10:13:19;103098.19;;;-9.40;58.52
70323;BME280;57735;56.264;43.898;2024-02-16T10:15:50;103094.69;;;-9.42;58.56
70323;BME280;57735;56.264;43.898;2024-02-16T10:18:21;103094.81;;;-9.36;58.67
70323;BME280;57735;56.264;43.898;2024-02-16T10:20:51;103086.31;;;-9.32;58.46
70323;BME280;57735;56.264;43.898;2024-02-16T10:23:22;103087.84;;;-9.40;58.10
70323;BME280;57735;56.264;43.898;2024-02-16T10:25:54;103086.25;;;-9.35;58.54
70323;BME280;57735;56.264;43.898;2024-02-16T10:28:28;103087.25;;;-9.30;58.86
70323;BME280;57735;56.264;43.898;2024-02-16T10:31:04;103084.06;;;-9.19;58.71
70323;BME280;57735;56.264;43.898;2024-02-16T10:33:36;103084.06;;;-9.19;57.74
70323;BME280;57735;56.264;43.898;2024-02-16T10:36:08;103088.41;;;-9.18;58.03
70323;BME280;57735;56.264;43.898;2024-02-16T10:38:42;103079.75;;;-9.20;57.66
70323;BME280;57735;56.264;43.898;2024-02-16T10:41:16;103074.50;;;-9.24;57.25
70323;BME280;57735;56.264;43.898;2024-02-16T10:43:49;103066.63;;;-9.29;57.58
70323;BME280;57735;56.264;43.898;2024-02-16T10:46:20;103081.03;;;-9.37;57.34
70323;BME280;57735;56.264;43.898;2024-02-16T10:48:51;103080.88;;;-9.44;57.65
70323;BME280;57735;56.264;43.898;2024-02-16T10:51:31;103079.75;;;-9.54;58.01
70323;BME280;57735;56.264;43.898;2024-02-16T10:54:06;103078.03;;;-9.54;58.67
70323;BME280;57735;56.264;43.898;2024-02-16T10:56:42;103071.19;;;-9.52;58.65
70323;BME280;57735;56.264;43.898;2024-02-16T10:59:17;103083.19;;;-9.55;58.42
70323;BME280;57735;56.264;43.898;2024-02-16T11:02:00;103069.16;;;-9.65;58.69
70323;BME280;57735;56.264;43.898;2024-02-16T11:04:39;103070.81;;;-9.67;59.02
70323;BME280;57735;56.264;43.898;2024-02-16T11:07:18;103058.66;;;-9.71;59.18
70323;BME280;57735;56.264;43.898;2024-02-16T11:09:52;103073.88;;;-9.81;59.07
70323;BME280;57735;56.264;43.898;2024-02-16T11:12:23;103068.56;;;-9.86;59.46
70323;BME280;57735;56.264;43.898;2024-02-16T11:14:56;103066.78;;;-9.90;59.36
70323;BME280;57735;56.264;43.898;2024-02-16T11:17:31;103067.91;;;-9.79;59.98
70323;BME280;57735;56.264;43.898;2024-02-16T11:20:06;103059.47;;;-9.73;59.49
70323;BME280;57735;56.264;43.898;2024-02-16T11:22:38;103062.06;;;-9.73;59.70
70323;BME280;57735;56.264;43.898;2024-02-16T11:25:12;103063.81;;;-9.71;59.46
70323;BME280;57735;56.264;43.898;2024-02-16T11:27:43;103057.69;;;-9.76;59.31
70323;BME280;57735;56.264;43.898;2024-02-16T11:30:14;103052.44;;;-9.79;59.43
70323;BME280;57735;56.264;43.898;2024-02-16T11:32:48;103053.09;;;-9.86;59.76
70323;BME280;57735;56.264;43.898;2024-02-16T11:35:19;103063.22;;;-9.94;59.99
70323;BME280;57735;56.264;43.898;2024-02-16T11:37:49;103056.00;;;-10.07;60.18
70323;BME280;57735;56.264;43.898;2024-02-16T11:40:22;103056.78;;;-10.09;60.24
70323;BME280;57735;56.264;43.898;2024-02-16T11:43:02;103055.72;;;-10.16;60.42
70323;BME280;57735;56.264;43.898;2024-02-16T11:45:34;103059.03;;;-10.23;60.26
70323;BME280;57735;56.264;43.898;2024-02-16T11:48:08;103053.97;;;-10.17;60.71
70323;BME280;57735;56.264;43.898;2024-02-16T11:50:40;103054.94;;;-10.13;60.65
70323;BME280;57735;56.264;43.898;2024-02-16T11:53:15;103054.75;;;-10.23;60.32
70323;BME280;57735;56.264;43.898;2024-02-16T11:55:47;103055.47;;;-10.27;61.01
70323;BME280;57735;56.264;43.898;2024-02-16T11:58:21;103044.47;;;-10.19;61.31
70323;BME280;57735;56.264;43.898;2024-02-16T12:00:52;103039.47;;;-10.13;61.37
70323;BME280;57735;56.264;43.898;2024-02-16T12:03:24;103039.28;;;-10.23;61.15
70323;BME280;57735;56.264;43.898;2024-02-16T12:05:57;103039.28;;;-10.23;61.95
70323;BME280;57735;56.264;43.898;2024-02-16T12:08:33;103040.97;;;-10.22;61.67
70323;BME280;57735;56.264;43.898;2024-02-16T12:11:04;103035.78;;;-10.25;61.43
70323;BME280;57735;56.264;43.898;2024-02-16T12:13:37;103031.50;;;-10.24;61.50
70323;BME280;57735;56.264;43.898;2024-02-16T12:16:08;103037.34;;;-10.30;61.71
70323;BME280;57735;56.264;43.898;2024-02-16T12:18:38;103036.22;;;-10.39;62.09
70323;BME280;57735;56.264;43.898;2024-02-16T12:21:09;103039.44;;;-10.46;62.18
70323;BME280;57735;56.264;43.898;2024-02-16T12:23:40;103032.53;;;-10.47;62.96
70323;BME280;57735;56.264;43.898;2024-02-16T12:26:11;103034.56;;;-10.36;62.76
70323;BME280;57735;56.264;43.898;2024-02-16T12:28:45;103040.50;;;-10.38;62.75
70323;BME280;57735;56.264;43.898;2024-02-16T12:31:23;103046.53;;;-10.38;62.43
70323;BME280;57735;56.264;43.898;2024-02-16T12:33:54;103042.25;;;-10.37;62.41
70323;BME280;57735;56.264;43.898;2024-02-16T12:36:25;103040.66;;;-10.34;62.61
70323;BME280;57735;56.264;43.898;2024-02-16T12:38:56;103054.47;;;-10.32;62.96
70323;BME280;57735;56.264;43.898;2024-02-16T12:41:27;103044.06;;;-10.35;62.50
70323;BME280;57735;56.264;43.898;2024-02-16T12:43:58;103051.59;;;-10.42;62.76
70323;BME280;57735;56.264;43.898;2024-02-16T12:46:29;103041.19;;;-10.45;62.62
70323;BME280;57735;56.264;43.898;2024-02-16T12:49:01;103046.19;;;-10.50;62.80
70323;BME280;57735;56.264;43.898;2024-02-16T12:51:32;103038.38;;;-10.53;62.71
70323;BME280;57735;56.264;43.898;2024-02-16T12:54:02;103035.94;;;-10.48;62.78
70323;BME280;57735;56.264;43.898;2024-02-16T12:56:37;103030.50;;;-10.59;62.82